createdAt,value
2019-05-14T00:00:03.221Z,41.50
2019-05-14T00:02:31.641Z,41.50
2019-05-14T00:05:17.033Z,41.50
2019-05-14T00:07:43.065Z,42.00
2019-05-14T00:10:09.033Z,41.50
2019-05-14T00:12:34.993Z,41.50
2019-05-14T00:15:02.022Z,41.60
2019-05-14T00:17:28.449Z,41.60
2019-05-14T00:20:06.298Z,41.60
2019-05-14T00:22:22.264Z,41.70
2019-05-14T00:24:48.241Z,41.60
2019-05-14T00:27:14.304Z,41.60
2019-05-14T00:29:41.882Z,41.60
2019-05-14T00:32:08.054Z,41.60
2019-05-14T00:34:34.099Z,41.60
2019-05-14T00:37:01.588Z,41.70
2019-05-14T00:39:27.802Z,41.70
2019-05-14T00:41:53.759Z,41.70
2019-05-14T00:44:21.521Z,41.90
2019-05-14T00:46:47.571Z,41.60
2019-05-14T00:49:13.553Z,41.60
2019-05-14T00:51:41.311Z,41.70
2019-05-14T00:54:07.476Z,41.70
2019-05-14T00:56:33.445Z,41.70
2019-05-14T00:59:01.275Z,41.70
2019-05-14T01:01:27.815Z,41.70
2019-05-14T01:03:53.770Z,41.80
2019-05-14T01:06:21.745Z,41.80
2019-05-14T01:08:47.585Z,41.80
2019-05-14T01:11:13.527Z,41.70
2019-05-14T01:13:41.518Z,41.80
2019-05-14T01:16:07.344Z,41.80
2019-05-14T01:18:33.291Z,41.80
2019-05-14T01:21:01.077Z,41.80
2019-05-14T01:23:27.191Z,41.70
2019-05-14T01:25:53.132Z,41.80
2019-05-14T01:28:21.430Z,41.90
2019-05-14T01:30:46.933Z,41.80
2019-05-14T01:33:12.884Z,41.90
2019-05-14T01:35:38.907Z,41.90
2019-05-14T01:38:04.841Z,41.80
2019-05-14T01:40:31.513Z,41.80
2019-05-14T01:42:57.835Z,41.70
2019-05-14T01:45:28.001Z,41.60
2019-05-14T01:47:52.122Z,41.80
2019-05-14T01:50:18.295Z,41.70
2019-05-14T01:52:44.256Z,41.80
2019-05-14T01:55:11.374Z,41.80
2019-05-14T01:57:37.697Z,41.80
2019-05-14T02:00:03.670Z,41.80
2019-05-14T02:02:31.336Z,41.80
2019-05-14T02:04:57.490Z,41.80
2019-05-14T02:07:23.455Z,41.80
2019-05-14T02:09:51.370Z,41.80
2019-05-14T02:12:17.257Z,41.80
2019-05-14T02:14:43.245Z,41.80
2019-05-14T02:17:09.396Z,41.80
2019-05-14T02:19:35.361Z,41.80
2019-05-14T02:22:02.132Z,41.70
2019-05-14T02:24:28.274Z,41.80
2019-05-14T02:26:54.243Z,41.80
2019-05-14T02:29:21.439Z,41.80
2019-05-14T02:31:50.433Z,41.80
2019-05-14T02:34:15.433Z,41.80
2019-05-14T02:36:41.398Z,41.80
2019-05-14T02:39:10.293Z,41.80
2019-05-14T02:41:35.227Z,42.10
2019-05-14T02:44:01.164Z,41.90
2019-05-14T02:46:29.652Z,42.10
2019-05-14T02:48:54.975Z,42.00
2019-05-14T02:51:20.928Z,41.90
2019-05-14T02:53:49.601Z,41.90
2019-05-14T02:56:14.746Z,41.80
2019-05-14T02:58:40.741Z,41.80
2019-05-14T03:01:09.425Z,41.70
2019-05-14T03:03:34.637Z,41.80
2019-05-14T03:06:00.853Z,41.80
2019-05-14T03:08:30.107Z,41.90
2019-05-14T03:10:54.944Z,41.90
2019-05-14T03:13:20.901Z,42.00
2019-05-14T03:15:49.474Z,42.40
2019-05-14T03:18:14.848Z,41.90
2019-05-14T03:20:40.807Z,41.90
2019-05-14T03:23:09.871Z,42.00
2019-05-14T03:25:34.741Z,42.00
2019-05-14T03:28:00.707Z,42.00
2019-05-14T03:30:31.671Z,42.00
2019-05-14T03:32:54.511Z,42.00
2019-05-14T03:35:24.438Z,42.00
2019-05-14T03:37:49.620Z,42.10
2019-05-14T03:40:19.230Z,42.20
2019-05-14T03:42:43.882Z,42.10
2019-05-14T03:45:09.837Z,42.10
2019-05-14T03:47:39.126Z,42.70
2019-05-14T03:50:03.631Z,42.10
2019-05-14T03:52:29.669Z,42.10
2019-05-14T03:54:59.804Z,42.10
2019-05-14T03:57:23.581Z,42.10
2019-05-14T03:59:50.165Z,42.00
2019-05-14T04:02:19.557Z,42.00
2019-05-14T04:04:44.131Z,41.90
2019-05-14T04:07:10.096Z,41.90
2019-05-14T04:09:36.151Z,42.00
2019-05-14T04:12:02.141Z,42.00
2019-05-14T04:14:29.176Z,42.00
2019-05-14T04:17:05.169Z,42.00
2019-05-14T04:19:24.144Z,42.50
2019-05-14T04:21:50.217Z,42.20
2019-05-14T04:24:16.256Z,42.20
2019-05-14T04:26:56.184Z,42.30
2019-05-14T04:29:10.283Z,42.50
2019-05-14T04:31:39.068Z,42.60
2019-05-14T04:34:04.964Z,42.60
2019-05-14T04:36:30.945Z,42.60
2019-05-14T04:39:00.358Z,42.60
2019-05-14T04:41:25.391Z,42.80
2019-05-14T04:43:51.434Z,42.90
2019-05-14T04:46:19.797Z,42.80
2019-05-14T04:48:45.257Z,43.10
2019-05-14T04:51:11.205Z,43.00
2019-05-14T04:53:39.428Z,42.90
2019-05-14T04:56:05.015Z,43.00
2019-05-14T04:58:30.960Z,43.10
2019-05-14T05:01:00.124Z,43.00
2019-05-14T05:03:24.763Z,42.90
2019-05-14T05:05:50.696Z,43.10
2019-05-14T05:08:19.696Z,43.80
2019-05-14T05:10:44.533Z,43.90
2019-05-14T05:13:10.570Z,43.10
2019-05-14T05:15:39.386Z,43.80
2019-05-14T05:18:04.392Z,43.00
2019-05-14T05:20:30.348Z,43.20
2019-05-14T05:22:56.319Z,43.40
2019-05-14T05:25:22.268Z,43.40
2019-05-14T05:27:48.767Z,43.70
2019-05-14T05:30:14.917Z,43.70
2019-05-14T05:32:40.897Z,43.70
2019-05-14T05:35:09.260Z,43.80
2019-05-14T05:37:34.845Z,43.80
2019-05-14T05:40:00.894Z,43.80
2019-05-14T05:42:29.293Z,43.80
2019-05-14T05:44:54.876Z,43.70
2019-05-14T05:47:20.807Z,43.60
2019-05-14T05:49:48.747Z,43.60
2019-05-14T05:52:14.632Z,44.10
2019-05-14T05:54:40.598Z,43.70
2019-05-14T05:57:09.024Z,43.60
2019-05-14T05:59:34.451Z,43.60
2019-05-14T06:02:00.493Z,43.60
2019-05-14T06:04:28.749Z,43.40
2019-05-14T06:06:54.318Z,43.40
2019-05-14T06:09:20.270Z,43.40
2019-05-14T06:11:48.560Z,43.30
2019-05-14T06:14:14.096Z,43.30
2019-05-14T06:16:40.033Z,43.20
2019-05-14T06:19:08.012Z,43.10
2019-05-14T06:21:33.994Z,43.00
2019-05-14T06:24:02.851Z,42.90
2019-05-14T06:26:28.942Z,43.00
2019-05-14T06:28:55.077Z,42.80
2019-05-14T06:31:21.024Z,42.60
2019-05-14T06:33:48.697Z,42.60
2019-05-14T06:36:14.865Z,42.50
2019-05-14T06:38:40.907Z,42.60
2019-05-14T06:41:08.371Z,42.50
2019-05-14T06:43:34.638Z,42.30
2019-05-14T06:46:00.698Z,42.30
2019-05-14T06:48:33.616Z,42.30
2019-05-14T06:50:54.887Z,42.50
2019-05-14T06:53:20.860Z,42.30
2019-05-14T06:55:48.390Z,42.20
2019-05-14T06:58:14.563Z,42.10
2019-05-14T07:00:40.546Z,42.00
2019-05-14T07:03:08.738Z,41.90
2019-05-14T07:05:34.475Z,41.90
2019-05-14T07:08:00.439Z,41.90
2019-05-14T07:10:28.680Z,41.90
2019-05-14T07:12:54.297Z,41.80
2019-05-14T07:15:20.386Z,41.80
2019-05-14T07:17:48.673Z,41.90
2019-05-14T07:20:14.309Z,41.90
2019-05-14T07:22:40.275Z,41.90
2019-05-14T07:25:09.462Z,41.90
2019-05-14T07:27:34.218Z,41.90
2019-05-14T07:30:00.149Z,41.90
2019-05-14T07:32:28.774Z,42.00
2019-05-14T07:34:53.989Z,42.10
2019-05-14T07:37:20.026Z,42.00
2019-05-14T07:39:45.965Z,41.90
2019-05-14T07:42:11.945Z,42.00
2019-05-14T07:44:39.046Z,42.10
2019-05-14T07:47:05.267Z,42.00
2019-05-14T07:49:31.311Z,41.90
2019-05-14T07:51:58.712Z,41.70
2019-05-14T07:54:24.908Z,41.40
2019-05-14T07:56:52.959Z,41.30
2019-05-14T07:59:18.715Z,41.10
2019-05-14T08:01:44.694Z,40.90
2019-05-14T08:04:11.696Z,40.70
2019-05-14T08:06:39.399Z,40.60
2019-05-14T08:09:05.700Z,40.60
2019-05-14T08:11:32.509Z,40.60
2019-05-14T08:13:58.650Z,40.40
2019-05-14T08:16:24.832Z,40.10
2019-05-14T08:18:50.777Z,40.10
2019-05-14T08:21:19.318Z,40.00
2019-05-14T08:23:45.289Z,40.00
2019-05-14T08:26:11.267Z,40.10
2019-05-14T08:28:38.211Z,40.20
2019-05-14T08:31:04.478Z,40.30
2019-05-14T08:33:30.532Z,40.40
2019-05-14T08:35:58.258Z,40.60
2019-05-14T08:38:24.365Z,40.70
2019-05-14T08:40:50.325Z,40.80
2019-05-14T08:43:18.517Z,41.00
2019-05-14T08:45:45.511Z,40.90
2019-05-14T08:48:11.591Z,40.90
2019-05-14T08:50:38.783Z,41.00
2019-05-14T08:53:05.004Z,41.00
2019-05-14T08:55:30.964Z,40.90
2019-05-14T08:57:59.271Z,41.10
2019-05-14T09:00:24.793Z,41.00
2019-05-14T09:02:50.752Z,41.70
2019-05-14T09:05:18.277Z,41.00
2019-05-14T09:07:44.457Z,41.80
2019-05-14T09:10:10.396Z,41.20
2019-05-14T09:12:38.612Z,41.20
2019-05-14T09:15:04.249Z,41.20
2019-05-14T09:17:30.331Z,41.20
2019-05-14T09:20:05.808Z,41.20
2019-05-14T09:22:24.257Z,40.40
2019-05-14T09:24:50.202Z,39.60
2019-05-14T09:27:16.147Z,38.40
2019-05-14T09:29:43.995Z,37.50
2019-05-14T09:32:09.951Z,36.40
2019-05-14T09:34:35.999Z,35.30
2019-05-14T09:37:01.945Z,34.30
2019-05-14T09:39:29.145Z,33.30
2019-05-14T09:41:55.379Z,32.80
2019-05-14T09:44:21.354Z,32.50
2019-05-14T09:46:49.852Z,32.30
2019-05-14T09:49:15.269Z,32.30
2019-05-14T09:51:41.227Z,32.30
2019-05-14T09:54:08.506Z,32.50
2019-05-14T09:56:34.779Z,32.90
2019-05-14T09:59:00.811Z,33.30
2019-05-14T10:01:27.429Z,33.50
2019-05-14T10:03:53.396Z,33.80
2019-05-14T10:06:20.733Z,34.10
2019-05-14T10:08:48.562Z,34.30
2019-05-14T10:11:14.894Z,34.50
2019-05-14T10:13:40.855Z,34.50
2019-05-14T10:16:09.275Z,34.80
2019-05-14T10:18:34.710Z,34.90
2019-05-14T10:21:00.768Z,35.00
2019-05-14T10:23:29.014Z,35.10
2019-05-14T10:25:55.006Z,35.20
2019-05-14T10:28:20.962Z,35.20
2019-05-14T10:30:48.964Z,35.20
2019-05-14T10:33:15.267Z,35.30
2019-05-14T10:35:41.343Z,35.40
2019-05-14T10:38:08.818Z,35.40
2019-05-14T10:40:35.085Z,35.30
2019-05-14T10:43:01.053Z,35.30
2019-05-14T10:45:28.871Z,35.30
2019-05-14T10:47:54.987Z,35.30
2019-05-14T10:50:20.931Z,35.30
2019-05-14T10:52:48.875Z,35.50
2019-05-14T10:55:14.745Z,35.60
2019-05-14T10:57:40.709Z,35.70
2019-05-14T11:00:08.838Z,35.90
2019-05-14T11:02:35.003Z,36.30
2019-05-14T11:05:00.980Z,36.60
2019-05-14T11:07:29.066Z,36.70
2019-05-14T11:09:54.906Z,37.00
2019-05-14T11:12:20.902Z,37.10
2019-05-14T11:14:49.188Z,37.10
2019-05-14T11:17:14.858Z,37.00
2019-05-14T11:19:40.822Z,37.00
2019-05-14T11:22:08.453Z,37.10
2019-05-14T11:24:34.659Z,37.40
2019-05-14T11:27:00.666Z,37.40
2019-05-14T11:29:29.252Z,37.60
2019-05-14T11:31:54.595Z,37.60
2019-05-14T11:34:20.548Z,37.80
2019-05-14T11:36:46.539Z,37.90
2019-05-14T11:39:12.608Z,37.90
2019-05-14T11:41:38.974Z,38.00
2019-05-14T11:44:05.194Z,37.90
2019-05-14T11:46:44.447Z,37.90
2019-05-14T11:48:59.577Z,38.10
2019-05-14T11:51:57.941Z,38.10
2019-05-14T11:53:53.547Z,38.30
2019-05-14T11:56:19.710Z,38.30
2019-05-14T11:58:45.789Z,38.20
2019-05-14T12:01:11.750Z,38.20
2019-05-14T12:03:39.416Z,38.40
2019-05-14T12:06:05.586Z,38.50
2019-05-14T12:08:31.550Z,38.50
2019-05-14T12:10:59.250Z,38.50
2019-05-14T12:13:29.880Z,38.60
2019-05-14T12:15:53.244Z,38.80
2019-05-14T12:18:19.292Z,38.80
2019-05-14T12:20:45.250Z,38.80
2019-05-14T12:23:11.239Z,38.90
2019-05-14T12:25:37.206Z,38.90
2019-05-14T12:28:03.182Z,39.60
2019-05-14T12:30:29.216Z,39.10
2019-05-14T12:32:55.199Z,39.10
2019-05-14T12:35:21.258Z,39.00
2019-05-14T12:37:47.326Z,39.00
2019-05-14T12:40:13.413Z,39.00
2019-05-14T12:42:39.674Z,39.00
2019-05-14T12:45:05.744Z,39.20
2019-05-14T12:47:31.723Z,39.20
2019-05-14T12:49:58.677Z,39.20
2019-05-14T12:52:26.150Z,39.20
2019-05-14T12:54:52.301Z,39.30
2019-05-14T12:57:18.931Z,39.30
2019-05-14T12:59:45.175Z,39.30
2019-05-14T13:02:11.155Z,39.30
2019-05-14T13:04:37.141Z,39.30
2019-05-14T13:07:03.203Z,39.20
2019-05-14T13:09:29.155Z,39.20
2019-05-14T13:11:55.123Z,39.30
2019-05-14T13:14:21.349Z,39.30
2019-05-14T13:16:48.675Z,39.30
2019-05-14T13:19:14.866Z,39.40
2019-05-14T13:21:40.837Z,39.50
2019-05-14T13:24:08.879Z,40.00
2019-05-14T13:26:34.760Z,39.60
2019-05-14T13:29:00.844Z,40.00
2019-05-14T13:31:29.268Z,39.50
2019-05-14T13:33:54.986Z,39.70
2019-05-14T13:36:20.968Z,40.60
2019-05-14T13:38:49.009Z,40.00
2019-05-14T13:41:14.842Z,40.00
2019-05-14T13:43:40.803Z,40.10
2019-05-14T13:46:09.767Z,40.20
2019-05-14T13:48:38.661Z,40.30
2019-05-14T13:51:02.530Z,40.30
2019-05-14T13:53:29.538Z,40.30
2019-05-14T13:55:57.864Z,40.40
2019-05-14T13:58:23.698Z,40.40
2019-05-14T14:00:52.122Z,40.50
2019-05-14T14:03:19.945Z,40.60
2019-05-14T14:05:45.593Z,40.60
2019-05-14T14:08:11.556Z,40.70
2019-05-14T14:10:45.076Z,40.70
2019-05-14T14:13:09.997Z,40.50
2019-05-14T14:15:33.384Z,40.10
2019-05-14T14:18:00.416Z,39.70
2019-05-14T14:20:29.067Z,39.70
2019-05-14T14:22:54.558Z,39.40
2019-05-14T14:25:20.649Z,39.10
2019-05-14T14:27:48.696Z,39.00
2019-05-14T14:30:14.536Z,38.80
2019-05-14T14:32:41.041Z,38.50
2019-05-14T14:35:10.139Z,38.40
2019-05-14T14:37:39.255Z,38.40
2019-05-14T14:40:04.205Z,38.20
2019-05-14T14:42:35.259Z,38.10
2019-05-14T14:44:58.126Z,37.80
2019-05-14T14:47:24.193Z,37.70
2019-05-14T14:49:51.629Z,37.80
2019-05-14T14:52:20.005Z,37.60
2019-05-14T14:54:45.978Z,37.50
2019-05-14T14:57:11.935Z,37.50
2019-05-14T14:59:39.032Z,37.40
2019-05-14T15:02:05.338Z,37.20
2019-05-14T15:04:31.378Z,37.20
2019-05-14T15:06:59.743Z,37.20
2019-05-14T15:09:25.161Z,37.20
2019-05-14T15:11:51.173Z,37.20
2019-05-14T15:14:20.074Z,37.10
2019-05-14T15:16:45.106Z,37.20
2019-05-14T15:19:11.071Z,37.10
2019-05-14T15:21:37.052Z,37.10
2019-05-14T15:24:10.624Z,37.10
2019-05-14T15:26:30.959Z,37.10
2019-05-14T15:28:58.385Z,36.90
2019-05-14T15:31:24.603Z,36.70
2019-05-14T15:33:51.181Z,36.60
2019-05-14T15:36:19.683Z,36.60
2019-05-14T15:38:45.243Z,36.70
2019-05-14T15:41:13.588Z,36.80
2019-05-14T15:43:39.632Z,36.80
2019-05-14T15:46:05.729Z,36.80
2019-05-14T15:48:31.694Z,37.10
2019-05-14T15:50:59.881Z,37.70
2019-05-14T15:53:25.609Z,36.90
2019-05-14T15:55:51.592Z,36.80
2019-05-14T15:58:21.264Z,36.90
2019-05-14T16:00:45.459Z,36.80
2019-05-14T16:03:11.532Z,36.80
2019-05-14T16:05:39.392Z,36.80
2019-05-14T16:08:05.387Z,36.50
2019-05-14T16:10:31.573Z,36.50
2019-05-14T16:12:59.555Z,36.50
2019-05-14T16:15:28.010Z,36.50
2019-05-14T16:18:07.625Z,36.60
2019-05-14T16:20:21.503Z,36.60
2019-05-14T16:22:47.458Z,36.60
2019-05-14T16:25:13.412Z,36.50
2019-05-14T16:27:39.885Z,36.40
2019-05-14T16:30:06.031Z,36.30
2019-05-14T16:32:32.013Z,36.20
2019-05-14T16:34:58.142Z,35.90
2019-05-14T16:37:24.242Z,35.80
2019-05-14T16:39:50.302Z,35.80
2019-05-14T16:42:20.483Z,35.70
2019-05-14T16:44:44.117Z,36.60
2019-05-14T16:47:10.131Z,35.80
2019-05-14T16:49:36.180Z,35.90
2019-05-14T16:52:02.173Z,36.10
2019-05-14T16:54:29.346Z,36.00
2019-05-14T16:56:55.883Z,35.80
2019-05-14T16:59:21.948Z,35.80
2019-05-14T17:01:49.167Z,36.00
2019-05-14T17:04:15.366Z,36.00
2019-05-14T17:06:41.422Z,36.00
2019-05-14T17:09:08.836Z,36.00
2019-05-14T17:11:35.642Z,35.90
2019-05-14T17:14:01.634Z,36.10
2019-05-14T17:16:28.992Z,36.10
2019-05-14T17:18:55.228Z,36.00
2019-05-14T17:21:21.220Z,36.00
2019-05-14T17:23:48.903Z,37.30
2019-05-14T17:26:15.047Z,36.20
2019-05-14T17:28:41.020Z,36.30
2019-05-14T17:31:07.087Z,36.40
2019-05-14T17:33:33.150Z,36.50
2019-05-14T17:35:59.155Z,36.50
2019-05-14T17:38:25.203Z,36.60
2019-05-14T17:40:51.202Z,36.70
2019-05-14T17:43:19.479Z,36.80
2019-05-14T17:45:45.097Z,37.00
2019-05-14T17:48:11.085Z,37.00
2019-05-14T17:50:38.457Z,37.10
2019-05-14T17:53:04.696Z,37.40
2019-05-14T17:55:43.670Z,37.70
2019-05-14T17:58:00.053Z,37.80
2019-05-14T18:00:28.644Z,37.80
2019-05-14T18:02:54.288Z,38.00
2019-05-14T18:05:20.260Z,38.20
2019-05-14T18:07:48.283Z,38.20
2019-05-14T18:10:14.174Z,38.30
2019-05-14T18:12:40.184Z,38.40
2019-05-14T18:15:08.393Z,38.60
2019-05-14T18:17:34.151Z,38.80
2019-05-14T18:20:00.102Z,39.00
2019-05-14T18:22:28.474Z,39.00
2019-05-14T18:24:53.935Z,39.10
2019-05-14T18:27:19.949Z,39.30
2019-05-14T18:29:48.680Z,39.40
2019-05-14T18:32:13.793Z,39.50
2019-05-14T18:34:39.758Z,39.60
2019-05-14T18:37:12.999Z,39.70
2019-05-14T18:39:33.866Z,39.80
2019-05-14T18:42:00.514Z,39.90
2019-05-14T18:44:28.493Z,39.90
2019-05-14T18:46:54.820Z,40.00
2019-05-14T18:49:20.867Z,40.00
2019-05-14T18:51:49.872Z,39.90
2019-05-14T18:54:14.806Z,40.00
2019-05-14T18:56:40.857Z,40.00
2019-05-14T18:59:08.909Z,40.00
2019-05-14T19:01:34.749Z,40.00
2019-05-14T19:04:00.808Z,40.00
2019-05-14T19:06:28.390Z,40.00
2019-05-14T19:08:54.560Z,40.00
2019-05-14T19:11:20.618Z,39.90
2019-05-14T19:13:48.334Z,40.00
2019-05-14T19:16:14.514Z,40.00
2019-05-14T19:18:40.558Z,40.00
2019-05-14T19:21:08.824Z,40.10
2019-05-14T19:23:34.541Z,40.10
2019-05-14T19:26:00.622Z,40.00
2019-05-14T19:28:28.236Z,40.10
2019-05-14T19:30:54.445Z,40.10
2019-05-14T19:33:20.717Z,40.70
2019-05-14T19:35:48.514Z,40.10
2019-05-14T19:38:14.644Z,40.20
2019-05-14T19:40:40.709Z,40.20
2019-05-14T19:43:09.293Z,40.30
2019-05-14T19:45:34.537Z,40.30
2019-05-14T19:48:00.494Z,40.30
2019-05-14T19:50:26.450Z,40.30
2019-05-14T19:52:52.417Z,40.30
2019-05-14T19:55:18.999Z,40.10
2019-05-14T19:57:45.141Z,40.30
2019-05-14T20:00:11.127Z,40.10
2019-05-14T20:02:37.203Z,40.20
2019-05-14T20:05:05.483Z,40.30
2019-05-14T20:07:31.147Z,40.30
2019-05-14T20:09:58.794Z,40.50
2019-05-14T20:12:24.911Z,40.60
2019-05-14T20:14:50.888Z,40.60
2019-05-14T20:17:19.217Z,40.80
2019-05-14T20:19:47.238Z,40.90
2019-05-14T20:22:13.037Z,41.00
2019-05-14T20:24:41.590Z,41.20
2019-05-14T20:27:11.791Z,41.50
2019-05-14T20:29:35.030Z,41.40
2019-05-14T20:32:02.023Z,41.30
2019-05-14T20:34:28.528Z,41.20
2019-05-14T20:36:54.707Z,41.30
2019-05-14T20:39:23.558Z,41.20
2019-05-14T20:41:49.639Z,40.90
2019-05-14T20:44:15.690Z,41.20
2019-05-14T20:46:41.657Z,41.20
2019-05-14T20:49:08.795Z,41.30
2019-05-14T20:51:35.122Z,41.20
2019-05-14T20:54:01.104Z,41.20
2019-05-14T20:56:28.394Z,41.30
2019-05-14T20:58:54.705Z,41.30
2019-05-14T21:01:20.704Z,41.30
2019-05-14T21:03:48.294Z,41.20
2019-05-14T21:06:14.538Z,41.30
2019-05-14T21:08:40.606Z,41.30
2019-05-14T21:11:08.223Z,41.30
2019-05-14T21:13:34.442Z,41.30
2019-05-14T21:16:00.398Z,41.20
2019-05-14T21:18:34.660Z,41.20
2019-05-14T21:20:54.247Z,41.20
2019-05-14T21:23:20.234Z,41.20
2019-05-14T21:25:48.192Z,41.20
2019-05-14T21:28:14.080Z,41.20
2019-05-14T21:30:40.036Z,41.20
2019-05-14T21:33:08.302Z,41.20
2019-05-14T21:35:34.014Z,41.20
2019-05-14T21:38:00.020Z,41.20
2019-05-14T21:40:25.987Z,41.30
2019-05-14T21:42:51.992Z,41.30
2019-05-14T21:45:18.162Z,41.30
2019-05-14T21:47:44.258Z,41.80
2019-05-14T21:50:10.215Z,41.40
2019-05-14T21:52:39.364Z,41.40
2019-05-14T21:55:04.085Z,41.40
2019-05-14T21:57:30.151Z,41.50
2019-05-14T21:59:56.109Z,42.00
2019-05-14T22:02:27.428Z,41.40
2019-05-14T22:04:49.955Z,41.40
2019-05-14T22:07:15.938Z,41.50
2019-05-14T22:09:41.919Z,41.40
2019-05-14T22:12:07.996Z,41.50
2019-05-14T22:14:33.994Z,41.50
2019-05-14T22:17:00.046Z,41.50
2019-05-14T22:19:26.026Z,41.50
2019-05-14T22:21:52.002Z,41.50
2019-05-14T22:24:18.730Z,41.50
2019-05-14T22:26:47.931Z,41.60
2019-05-14T22:29:14.095Z,41.50
2019-05-14T22:31:40.057Z,41.50
2019-05-14T22:34:06.006Z,41.50
2019-05-14T22:36:31.976Z,41.50
2019-05-14T22:38:58.062Z,41.60
2019-05-14T22:41:24.125Z,41.60
2019-05-14T22:43:51.451Z,41.70
2019-05-14T22:46:18.072Z,41.60
2019-05-14T22:48:44.301Z,41.60
2019-05-14T22:51:10.269Z,41.60
2019-05-14T22:53:36.242Z,41.60
2019-05-14T22:56:02.339Z,41.60
2019-05-14T22:58:28.844Z,41.50
2019-05-14T23:01:06.575Z,41.60
2019-05-14T23:03:22.813Z,41.60
2019-05-14T23:05:48.780Z,41.60
2019-05-14T23:08:14.749Z,41.60
2019-05-14T23:10:40.721Z,41.70
2019-05-14T23:13:08.913Z,41.50
2019-05-14T23:15:34.547Z,41.60
2019-05-14T23:18:00.538Z,41.50
2019-05-14T23:20:28.720Z,41.50
2019-05-14T23:22:54.514Z,42.20
2019-05-14T23:25:20.476Z,41.50
2019-05-14T23:27:48.169Z,41.50
2019-05-14T23:30:14.310Z,41.50
2019-05-14T23:32:40.288Z,41.50
2019-05-14T23:35:06.367Z,41.50
2019-05-14T23:37:32.325Z,41.50
2019-05-14T23:39:58.663Z,41.50
2019-05-14T23:42:24.745Z,41.50
2019-05-14T23:44:50.789Z,41.60
2019-05-14T23:47:19.179Z,41.60
2019-05-14T23:49:44.599Z,41.60
2019-05-14T23:52:10.544Z,41.50
2019-05-14T23:54:38.530Z,41.80
2019-05-14T23:57:04.355Z,41.50
2019-05-14T23:59:30.309Z,41.70
